createdAt,value
2023-04-22T00:01:53.561Z,18.70
2023-04-22T00:04:21.477Z,18.60
2023-04-22T00:06:48.629Z,18.60
2023-04-22T00:09:15.571Z,18.60
2023-04-22T00:11:42.454Z,18.60
2023-04-22T00:14:09.395Z,18.60
2023-04-22T00:16:36.444Z,18.50
2023-04-22T00:19:04.984Z,18.50
2023-04-22T00:21:32.576Z,18.50
2023-04-22T00:23:59.456Z,18.50
2023-04-22T00:26:26.464Z,18.50
2023-04-22T00:28:53.441Z,18.40
2023-04-22T00:31:20.505Z,18.40
2023-04-22T00:33:47.364Z,18.30
2023-04-22T00:36:14.309Z,18.30
2023-04-22T00:38:46.655Z,18.30
2023-04-22T00:41:13.710Z,18.30
2023-04-22T00:43:40.652Z,18.20
2023-04-22T00:46:07.773Z,18.20
2023-04-22T00:48:37.096Z,18.20
2023-04-22T00:51:04.389Z,18.20
2023-04-22T00:53:31.270Z,18.10
2023-04-22T00:55:59.107Z,18.10
2023-04-22T00:58:28.969Z,18.10
2023-04-22T01:00:56.200Z,18.10
2023-04-22T01:03:24.220Z,18.00
2023-04-22T01:05:51.637Z,18.00
2023-04-22T01:08:18.550Z,18.00
2023-04-22T01:10:45.853Z,17.90
2023-04-22T01:13:12.924Z,17.90
2023-04-22T01:15:40.340Z,17.90
2023-04-22T01:18:07.679Z,17.80
2023-04-22T01:20:34.682Z,17.80
2023-04-22T01:23:04.396Z,17.80
2023-04-22T01:25:31.333Z,17.70
2023-04-22T01:27:58.811Z,17.70
2023-04-22T01:30:26.102Z,17.70
2023-04-22T01:32:53.307Z,17.70
2023-04-22T01:35:20.340Z,17.60
2023-04-22T01:37:47.236Z,17.60
2023-04-22T01:40:16.581Z,17.60
2023-04-22T01:42:43.465Z,17.60
2023-04-22T01:45:11.235Z,17.50
2023-04-22T01:47:38.214Z,17.50
2023-04-22T01:50:05.656Z,17.50
2023-04-22T01:52:32.738Z,17.50
2023-04-22T01:55:01.403Z,17.50
2023-04-22T01:57:28.297Z,17.50
2023-04-22T01:59:56.597Z,17.50
2023-04-22T02:02:23.702Z,17.50
2023-04-22T02:04:50.756Z,17.40
2023-04-22T02:07:17.646Z,17.40
2023-04-22T02:09:44.834Z,17.40
2023-04-22T02:12:11.748Z,17.40
2023-04-22T02:14:38.650Z,17.40
2023-04-22T02:17:05.557Z,17.40
2023-04-22T02:19:32.419Z,17.30
2023-04-22T02:21:59.335Z,17.40
2023-04-22T02:24:26.847Z,17.30
2023-04-22T02:26:53.767Z,17.30
2023-04-22T02:29:20.686Z,17.30
2023-04-22T02:31:47.738Z,17.20
2023-04-22T02:34:14.717Z,17.20
2023-04-22T02:36:41.586Z,17.20
2023-04-22T02:39:08.462Z,17.10
2023-04-22T02:41:35.551Z,17.10
2023-04-22T02:44:02.508Z,17.10
2023-04-22T02:46:29.472Z,17.10
2023-04-22T02:48:56.441Z,17.00
2023-04-22T02:51:23.820Z,17.00
2023-04-22T02:53:50.706Z,17.00
2023-04-22T02:56:17.596Z,17.00
2023-04-22T02:58:44.476Z,17.00
2023-04-22T03:01:11.910Z,17.00
2023-04-22T03:03:39.063Z,16.90
2023-04-22T03:06:06.389Z,16.90
2023-04-22T03:08:33.483Z,16.90
2023-04-22T03:11:00.391Z,16.90
2023-04-22T03:13:27.295Z,16.80
2023-04-22T03:15:54.173Z,16.80
2023-04-22T03:18:21.104Z,16.80
2023-04-22T03:20:49.439Z,16.70
2023-04-22T03:23:16.313Z,16.70
2023-04-22T03:25:43.138Z,16.70
2023-04-22T03:28:09.987Z,16.70
2023-04-22T03:30:36.876Z,16.60
2023-04-22T03:33:03.847Z,16.60
2023-04-22T03:35:31.018Z,16.70
2023-04-22T03:37:57.892Z,16.60
2023-04-22T03:40:24.728Z,16.60
2023-04-22T03:42:51.592Z,16.60
2023-04-22T03:45:18.533Z,16.60
2023-04-22T03:47:45.802Z,16.60
2023-04-22T03:50:12.712Z,16.60
2023-04-22T03:52:39.577Z,16.60
2023-04-22T03:55:06.745Z,16.60
2023-04-22T03:57:33.606Z,16.50
2023-04-22T04:00:00.510Z,16.50
2023-04-22T04:02:27.615Z,16.50
2023-04-22T04:04:54.909Z,16.50
2023-04-22T04:07:21.934Z,16.40
2023-04-22T04:09:48.767Z,16.40
2023-04-22T04:12:15.602Z,16.40
2023-04-22T04:14:42.566Z,16.40
2023-04-22T04:17:09.804Z,16.40
2023-04-22T04:19:38.355Z,16.40
2023-04-22T04:22:05.446Z,16.30
2023-04-22T04:24:32.350Z,16.30
2023-04-22T04:26:59.310Z,16.30
2023-04-22T04:29:27.104Z,16.30
2023-04-22T04:31:53.991Z,16.30
2023-04-22T04:34:20.946Z,16.30
2023-04-22T04:36:47.911Z,16.20
2023-04-22T04:39:17.908Z,16.20
2023-04-22T04:41:45.271Z,16.20
2023-04-22T04:44:12.314Z,16.10
2023-04-22T04:46:39.574Z,16.10
2023-04-22T04:49:09.511Z,16.10
2023-04-22T04:51:36.375Z,16.10
2023-04-22T04:54:03.252Z,16.10
2023-04-22T04:56:31.017Z,16.10
2023-04-22T04:58:58.201Z,16.00
2023-04-22T05:01:25.343Z,16.00
2023-04-22T05:03:52.471Z,16.00
2023-04-22T05:06:19.494Z,16.00
2023-04-22T05:08:46.394Z,16.00
2023-04-22T05:11:13.490Z,16.00
2023-04-22T05:13:40.469Z,16.00
2023-04-22T05:16:07.540Z,15.90
2023-04-22T05:18:34.542Z,15.90
2023-04-22T05:21:04.337Z,15.90
2023-04-22T05:23:31.317Z,15.80
2023-04-22T05:25:58.826Z,15.80
2023-04-22T05:28:25.775Z,15.80
2023-04-22T05:30:52.704Z,15.80
2023-04-22T05:33:19.554Z,15.70
2023-04-22T05:35:46.528Z,15.70
2023-04-22T05:38:13.474Z,15.70
2023-04-22T05:40:40.686Z,15.70
2023-04-22T05:43:07.595Z,15.70
2023-04-22T05:45:34.736Z,15.70
2023-04-22T05:48:01.673Z,15.80
2023-04-22T05:50:28.749Z,15.80
2023-04-22T05:52:55.837Z,15.90
2023-04-22T05:55:22.747Z,16.00
2023-04-22T05:57:50.788Z,16.00
2023-04-22T06:00:18.148Z,16.00
2023-04-22T06:02:45.268Z,16.10
2023-04-22T06:05:12.392Z,16.10
2023-04-22T06:07:40.022Z,16.10
2023-04-22T06:10:07.691Z,16.20
2023-04-22T06:12:34.779Z,16.20
2023-04-22T06:15:01.665Z,16.20
2023-04-22T06:17:28.571Z,16.30
2023-04-22T06:19:55.660Z,16.30
2023-04-22T06:22:22.545Z,16.40
2023-04-22T06:24:49.465Z,16.50
2023-04-22T06:27:17.159Z,16.50
2023-04-22T06:29:44.039Z,16.50
2023-04-22T06:32:10.911Z,16.60
2023-04-22T06:34:38.835Z,16.70
2023-04-22T06:37:06.376Z,16.70
2023-04-22T06:39:33.250Z,16.80
2023-04-22T06:42:01.629Z,16.80
2023-04-22T06:44:29.176Z,16.90
2023-04-22T06:46:57.959Z,16.90
2023-04-22T06:49:25.226Z,17.00
2023-04-22T06:51:52.078Z,17.00
2023-04-22T06:54:19.036Z,17.10
2023-04-22T06:56:46.001Z,17.20
2023-04-22T06:59:13.008Z,17.20
2023-04-22T07:01:39.886Z,17.20
2023-04-22T07:04:06.918Z,17.30
2023-04-22T07:06:33.834Z,17.30
2023-04-22T07:09:00.748Z,17.30
2023-04-22T07:11:27.909Z,17.40
2023-04-22T07:13:54.791Z,17.50
2023-04-22T07:16:21.777Z,17.50
2023-04-22T07:18:48.930Z,17.60
2023-04-22T07:21:15.764Z,17.60
2023-04-22T07:23:42.624Z,17.70
2023-04-22T07:26:09.535Z,17.70
2023-04-22T07:28:36.460Z,17.80
2023-04-22T07:31:03.625Z,17.80
2023-04-22T07:33:30.574Z,17.90
2023-04-22T07:35:57.446Z,17.90
2023-04-22T07:38:26.109Z,18.00
2023-04-22T07:40:53.010Z,18.10
2023-04-22T07:43:20.097Z,18.10
2023-04-22T07:45:47.027Z,18.20
2023-04-22T07:48:13.929Z,18.30
2023-04-22T07:50:40.868Z,18.40
2023-04-22T07:53:07.745Z,18.40
2023-04-22T07:55:34.847Z,18.50
2023-04-22T07:58:06.225Z,18.60
2023-04-22T08:00:35.264Z,18.60
2023-04-22T08:03:03.843Z,18.70
2023-04-22T08:05:30.984Z,18.80
2023-04-22T08:07:57.926Z,18.90
2023-04-22T08:10:24.958Z,19.00
2023-04-22T08:12:51.821Z,19.10
2023-04-22T08:15:18.782Z,19.20
2023-04-22T08:17:46.037Z,19.30
2023-04-22T08:20:15.368Z,19.40
2023-04-22T08:22:45.437Z,19.40
2023-04-22T08:25:12.365Z,19.50
2023-04-22T08:27:39.341Z,19.70
2023-04-22T08:30:07.509Z,19.90
2023-04-22T08:32:34.493Z,20.20
2023-04-22T08:35:04.644Z,20.60
2023-04-22T08:37:32.613Z,21.20
2023-04-22T08:39:59.518Z,21.90
2023-04-22T08:42:27.589Z,22.60
2023-04-22T08:44:54.920Z,23.40
2023-04-22T08:47:22.462Z,24.20
2023-04-22T08:49:52.663Z,25.00
2023-04-22T08:52:19.662Z,25.60
2023-04-22T08:54:46.580Z,26.20
2023-04-22T08:57:14.994Z,26.60
2023-04-22T08:59:42.639Z,26.80
2023-04-22T09:02:23.789Z,26.90
2023-04-22T09:04:53.642Z,26.80
2023-04-22T09:07:26.919Z,26.80
2023-04-22T09:09:56.007Z,26.60
2023-04-22T09:12:23.511Z,26.50
2023-04-22T09:14:50.576Z,26.30
2023-04-22T09:17:18.979Z,26.10
2023-04-22T09:19:46.064Z,25.90
2023-04-22T09:22:16.179Z,25.70
2023-04-22T09:24:52.193Z,25.50
2023-04-22T09:27:20.032Z,25.20
2023-04-22T09:29:50.344Z,25.00
2023-04-22T09:32:18.017Z,24.80
2023-04-22T09:34:53.778Z,24.60
2023-04-22T09:37:33.310Z,24.40
2023-04-22T09:40:06.384Z,24.30
2023-04-22T09:42:48.889Z,24.20
2023-04-22T09:45:28.951Z,24.10
2023-04-22T09:47:57.384Z,24.00
2023-04-22T09:50:26.439Z,23.90
2023-04-22T09:52:59.105Z,24.00
2023-04-22T09:55:27.433Z,23.80
2023-04-22T09:57:55.813Z,23.80
2023-04-22T10:00:26.074Z,23.80
2023-04-22T10:02:53.176Z,23.80
2023-04-22T10:05:20.821Z,23.70
2023-04-22T10:07:47.794Z,23.70
2023-04-22T10:10:14.940Z,23.70
2023-04-22T10:12:42.715Z,23.70
2023-04-22T10:15:10.547Z,23.70
2023-04-22T10:17:39.300Z,23.70
2023-04-22T10:20:13.728Z,23.70
2023-04-22T10:22:42.877Z,23.80
2023-04-22T10:25:25.712Z,23.70
2023-04-22T10:28:06.784Z,23.80
2023-04-22T10:30:37.580Z,23.80
2023-04-22T10:33:23.998Z,23.80
2023-04-22T10:36:11.185Z,23.80
2023-04-22T10:38:42.884Z,23.80
2023-04-22T10:41:16.516Z,23.80
2023-04-22T10:43:47.263Z,23.90
2023-04-22T10:46:37.313Z,23.80
2023-04-22T10:49:07.985Z,23.90
2023-04-22T10:51:46.290Z,23.90
2023-04-22T10:54:37.568Z,23.90
2023-04-22T10:57:05.706Z,23.90
2023-04-22T10:59:53.840Z,23.90
2023-04-22T11:02:22.906Z,23.90
2023-04-22T11:04:50.523Z,24.00
2023-04-22T11:07:26.715Z,24.10
2023-04-22T11:09:59.279Z,24.10
2023-04-22T11:12:44.046Z,24.20
2023-04-22T11:15:19.944Z,24.20
2023-04-22T11:17:50.547Z,24.20
2023-04-22T11:20:18.296Z,24.20
2023-04-22T11:22:51.362Z,24.30
2023-04-22T11:25:18.919Z,24.30
2023-04-22T11:27:46.459Z,24.40
2023-04-22T11:30:16.519Z,24.40
2023-04-22T11:32:48.816Z,24.40
2023-04-22T11:35:19.819Z,24.50
2023-04-22T11:37:58.425Z,24.40
2023-04-22T11:40:31.647Z,24.50
2023-04-22T11:43:01.656Z,24.50
2023-04-22T11:45:34.072Z,24.60
2023-04-22T11:48:02.067Z,24.60
2023-04-22T11:50:37.099Z,24.70
2023-04-22T11:53:13.320Z,24.70
2023-04-22T11:55:41.739Z,24.80
2023-04-22T11:58:09.879Z,24.90
2023-04-22T12:00:43.171Z,24.90
2023-04-22T12:03:20.523Z,24.90
2023-04-22T12:05:54.512Z,25.00
2023-04-22T12:08:26.823Z,25.00
2023-04-22T12:10:56.489Z,25.10
2023-04-22T12:13:31.726Z,25.10
2023-04-22T12:16:04.572Z,25.20
2023-04-22T12:18:39.779Z,25.20
2023-04-22T12:21:11.099Z,25.20
2023-04-22T12:23:45.941Z,25.30
2023-04-22T12:26:13.783Z,25.30
2023-04-22T12:28:42.071Z,25.40
2023-04-22T12:31:09.822Z,25.40
2023-04-22T12:33:37.747Z,25.50
2023-04-22T12:36:05.976Z,25.60
2023-04-22T12:38:33.303Z,25.60
2023-04-22T12:41:00.649Z,25.70
2023-04-22T12:43:27.537Z,25.80
2023-04-22T12:45:54.509Z,25.80
2023-04-22T12:48:21.454Z,25.90
2023-04-22T12:50:48.390Z,25.90
2023-04-22T12:53:16.308Z,26.00
2023-04-22T12:55:45.856Z,26.10
2023-04-22T12:58:13.101Z,26.20
2023-04-22T13:00:40.732Z,26.20
2023-04-22T13:03:07.971Z,26.30
2023-04-22T13:05:35.155Z,26.30
2023-04-22T13:08:07.226Z,26.40
2023-04-22T13:10:35.784Z,26.50
2023-04-22T13:15:34.462Z,26.50
2023-04-22T13:18:02.299Z,26.50
2023-04-22T13:20:29.389Z,26.50
2023-04-22T13:22:56.391Z,26.50
2023-04-22T13:25:23.256Z,26.50
2023-04-22T13:27:50.664Z,26.60
2023-04-22T13:30:17.520Z,26.60
2023-04-22T13:32:44.444Z,26.60
2023-04-22T13:35:11.508Z,26.60
2023-04-22T13:37:38.512Z,26.60
2023-04-22T13:40:06.265Z,26.60
2023-04-22T13:42:33.166Z,26.60
2023-04-22T13:45:00.029Z,26.70
2023-04-22T13:47:27.018Z,26.70
2023-04-22T13:49:53.960Z,26.80
2023-04-22T13:52:20.926Z,26.80
2023-04-22T13:54:47.827Z,26.80
2023-04-22T13:57:14.799Z,26.90
2023-04-22T13:59:42.229Z,26.90
2023-04-22T14:02:09.520Z,26.90
2023-04-22T14:04:36.496Z,26.90
2023-04-22T14:07:04.119Z,26.90
2023-04-22T14:09:31.328Z,27.00
2023-04-22T14:11:58.908Z,27.20
2023-04-22T14:14:26.069Z,27.40
2023-04-22T14:16:53.022Z,27.60
2023-04-22T14:19:20.337Z,27.80
2023-04-22T14:21:47.716Z,28.10
2023-04-22T14:24:14.875Z,28.30
2023-04-22T14:26:41.809Z,28.60
2023-04-22T14:29:08.802Z,28.80
2023-04-22T14:31:35.941Z,29.00
2023-04-22T14:34:02.993Z,29.20
2023-04-22T14:36:30.017Z,29.30
2023-04-22T14:38:56.920Z,29.40
2023-04-22T14:41:24.849Z,29.40
2023-04-22T14:43:51.784Z,29.40
2023-04-22T14:46:18.736Z,29.50
2023-04-22T14:48:45.714Z,29.50
2023-04-22T14:51:12.605Z,29.50
2023-04-22T14:53:40.959Z,29.50
2023-04-22T14:56:08.187Z,29.60
2023-04-22T14:58:35.058Z,29.80
2023-04-22T15:01:02.033Z,29.90
2023-04-22T15:03:29.170Z,30.00
2023-04-22T15:05:56.290Z,30.10
2023-04-22T15:08:25.378Z,30.20
2023-04-22T15:10:52.347Z,30.20
2023-04-22T15:13:19.905Z,30.30
2023-04-22T15:15:47.183Z,30.50
2023-04-22T15:18:14.286Z,30.60
2023-04-22T15:20:41.501Z,30.70
2023-04-22T15:23:08.385Z,30.90
2023-04-22T15:25:35.881Z,31.00
2023-04-22T15:28:03.228Z,31.10
2023-04-22T15:30:30.365Z,31.20
2023-04-22T15:32:57.419Z,31.30
2023-04-22T15:35:24.574Z,31.30
2023-04-22T15:37:52.696Z,31.20
2023-04-22T15:40:19.811Z,31.00
2023-04-22T15:42:46.777Z,30.90
2023-04-22T15:45:13.705Z,30.70
2023-04-22T15:47:41.731Z,30.50
2023-04-22T15:50:09.769Z,30.30
2023-04-22T15:52:38.090Z,30.20
2023-04-22T15:55:08.359Z,30.10
2023-04-22T15:57:35.621Z,30.00
2023-04-22T16:00:13.125Z,30.00
2023-04-22T16:02:41.888Z,30.10
2023-04-22T16:05:09.320Z,30.10
2023-04-22T16:07:36.269Z,30.20
2023-04-22T16:10:03.623Z,30.20
2023-04-22T16:12:33.541Z,30.20
2023-04-22T16:15:01.616Z,30.30
2023-04-22T16:17:28.927Z,30.10
2023-04-22T16:19:55.999Z,30.00
2023-04-22T16:22:23.193Z,29.90
2023-04-22T16:24:50.073Z,29.70
2023-04-22T16:27:18.611Z,29.60
2023-04-22T16:29:46.149Z,29.40
2023-04-22T16:32:13.104Z,29.20
2023-04-22T16:34:40.087Z,29.00
2023-04-22T16:37:07.065Z,28.70
2023-04-22T16:39:34.058Z,28.30
2023-04-22T16:42:02.363Z,28.00
2023-04-22T16:44:29.389Z,27.70
2023-04-22T16:46:56.269Z,27.40
2023-04-22T16:49:23.221Z,27.10
2023-04-22T16:51:50.435Z,26.70
2023-04-22T16:54:17.323Z,26.50
2023-04-22T16:56:44.260Z,26.30
2023-04-22T16:59:11.206Z,26.00
2023-04-22T17:01:38.142Z,25.90
2023-04-22T17:04:05.123Z,25.70
2023-04-22T17:06:32.596Z,25.50
2023-04-22T17:09:00.033Z,25.40
2023-04-22T17:11:26.939Z,25.30
2023-04-22T17:13:53.926Z,25.10
2023-04-22T17:16:21.078Z,25.00
2023-04-22T17:18:48.237Z,24.90
2023-04-22T17:21:16.868Z,24.80
2023-04-22T17:23:43.814Z,24.70
2023-04-22T17:26:10.644Z,24.60
2023-04-22T17:28:37.555Z,24.50
2023-04-22T17:31:04.471Z,24.40
2023-04-22T17:33:31.427Z,24.30
2023-04-22T17:35:58.363Z,24.30
2023-04-22T17:38:25.261Z,24.20
2023-04-22T17:40:52.137Z,24.10
2023-04-22T17:43:19.026Z,24.00
2023-04-22T17:45:45.911Z,24.00
2023-04-22T17:48:12.796Z,23.90
2023-04-22T17:50:39.701Z,23.80
2023-04-22T17:53:06.749Z,23.70
2023-04-22T17:55:36.693Z,23.60
2023-04-22T17:58:04.630Z,23.60
2023-04-22T18:00:33.460Z,23.50
2023-04-22T18:03:00.720Z,23.40
2023-04-22T18:05:27.907Z,23.30
2023-04-22T18:08:01.693Z,23.20
2023-04-22T18:10:29.469Z,23.20
2023-04-22T18:12:56.345Z,23.10
2023-04-22T18:15:23.646Z,23.10
2023-04-22T18:17:51.251Z,23.00
2023-04-22T18:20:19.869Z,23.00
2023-04-22T18:22:49.000Z,22.90
2023-04-22T18:25:17.026Z,22.80
2023-04-22T18:27:44.221Z,22.80
2023-04-22T18:30:11.467Z,22.80
2023-04-22T18:32:38.653Z,22.70
2023-04-22T18:35:06.340Z,22.70
2023-04-22T18:37:34.881Z,22.70
2023-04-22T18:40:02.672Z,22.70
2023-04-22T18:42:29.971Z,22.80
2023-04-22T18:44:56.996Z,22.70
2023-04-22T18:47:23.942Z,22.70
2023-04-22T18:49:50.969Z,22.70
2023-04-22T18:52:18.401Z,22.70
2023-04-22T18:54:45.395Z,22.70
2023-04-22T18:57:12.469Z,22.60
2023-04-22T18:59:39.814Z,22.60
2023-04-22T19:02:06.813Z,22.60
2023-04-22T19:04:33.778Z,22.50
2023-04-22T19:07:01.029Z,22.50
2023-04-22T19:09:27.982Z,22.40
2023-04-22T19:11:55.561Z,22.40
2023-04-22T19:14:22.517Z,22.30
2023-04-22T19:16:49.542Z,22.30
2023-04-22T19:19:16.502Z,22.20
2023-04-22T19:21:43.596Z,22.10
2023-04-22T19:24:10.867Z,22.00
2023-04-22T19:26:37.853Z,22.00
2023-04-22T19:29:04.732Z,21.90
2023-04-22T19:31:32.188Z,21.80
2023-04-22T19:33:59.526Z,21.70
2023-04-22T19:36:27.043Z,21.60
2023-04-22T19:38:54.015Z,21.50
2023-04-22T19:41:21.719Z,21.40
2023-04-22T19:43:48.691Z,21.30
2023-04-22T19:46:15.570Z,21.30
2023-04-22T19:48:42.671Z,21.20
2023-04-22T19:51:11.197Z,21.20
2023-04-22T19:53:41.236Z,21.20
2023-04-22T19:56:09.325Z,21.20
2023-04-22T19:58:36.609Z,21.20
2023-04-22T20:01:04.331Z,21.20
2023-04-22T20:03:31.648Z,21.20
2023-04-22T20:05:59.514Z,21.10
2023-04-22T20:08:27.994Z,21.20
2023-04-22T20:10:55.746Z,21.20
2023-04-22T20:13:23.232Z,21.10
2023-04-22T20:15:50.898Z,21.10
2023-04-22T20:18:17.907Z,21.10
2023-04-22T20:20:48.037Z,21.10
2023-04-22T20:23:15.590Z,21.10
2023-04-22T20:25:47.061Z,21.10
2023-04-22T20:28:14.368Z,21.10
2023-04-22T20:30:41.605Z,21.10
2023-04-22T20:33:12.193Z,21.10
2023-04-22T20:35:40.376Z,21.00
2023-04-22T20:38:09.858Z,21.00
2023-04-22T20:40:36.901Z,21.00
2023-04-22T20:43:03.805Z,21.00
2023-04-22T20:45:31.330Z,20.90
2023-04-22T20:47:58.495Z,20.90
2023-04-22T20:50:26.535Z,20.90
2023-04-22T20:52:53.495Z,20.90
2023-04-22T20:55:20.358Z,20.90
2023-04-22T20:57:47.230Z,20.90
2023-04-22T21:00:14.738Z,20.90
2023-04-22T21:02:43.409Z,20.80
2023-04-22T21:05:11.430Z,20.80
2023-04-22T21:07:43.139Z,20.80
2023-04-22T21:10:10.513Z,20.80
2023-04-22T21:12:38.331Z,20.80
2023-04-22T21:15:06.171Z,20.80
2023-04-22T21:17:35.559Z,20.80
2023-04-22T21:20:05.400Z,20.80
2023-04-22T21:22:32.842Z,20.70
2023-04-22T21:25:00.536Z,20.70
2023-04-22T21:27:27.735Z,20.70
2023-04-22T21:29:54.941Z,20.70
2023-04-22T21:32:21.955Z,20.70
2023-04-22T21:34:48.827Z,20.70
2023-04-22T21:37:15.797Z,20.70
2023-04-22T21:39:42.655Z,20.70
2023-04-22T21:42:09.624Z,20.70
2023-04-22T21:44:38.142Z,20.70
2023-04-22T21:47:05.965Z,20.70
2023-04-22T21:49:33.051Z,20.70
2023-04-22T21:51:59.977Z,20.60
2023-04-22T21:54:27.026Z,20.60
2023-04-22T21:56:53.967Z,20.60
2023-04-22T21:59:20.986Z,20.60
2023-04-22T22:01:48.032Z,20.60
2023-04-22T22:04:15.952Z,20.50
2023-04-22T22:06:44.815Z,20.60
2023-04-22T22:09:12.468Z,20.60
2023-04-22T22:11:39.352Z,20.60
2023-04-22T22:14:06.335Z,20.50
2023-04-22T22:16:33.537Z,20.50
2023-04-22T22:19:02.788Z,20.50
2023-04-22T22:21:29.903Z,20.40
2023-04-22T22:23:57.884Z,20.40
2023-04-22T22:26:24.894Z,20.30
2023-04-22T22:28:51.790Z,20.30
2023-04-22T22:31:18.800Z,20.30
2023-04-22T22:33:45.911Z,20.30
2023-04-22T22:36:13.682Z,20.30
2023-04-22T22:38:40.641Z,20.20
2023-04-22T22:41:07.511Z,20.20
2023-04-22T22:43:34.428Z,20.20
2023-04-22T22:46:01.603Z,20.20
2023-04-22T22:48:28.722Z,20.10
2023-04-22T22:50:56.845Z,20.10
2023-04-22T22:53:23.698Z,20.00
2023-04-22T22:55:50.764Z,20.00
2023-04-22T22:58:17.679Z,20.00
2023-04-22T23:00:44.609Z,19.90
2023-04-22T23:03:11.662Z,19.90
2023-04-22T23:05:38.835Z,19.90
2023-04-22T23:08:05.901Z,19.80
2023-04-22T23:10:32.815Z,19.80
2023-04-22T23:12:59.744Z,19.80
2023-04-22T23:15:26.590Z,19.80
2023-04-22T23:17:53.448Z,19.80
2023-04-22T23:20:21.972Z,19.70
2023-04-22T23:22:51.157Z,19.70
2023-04-22T23:25:18.368Z,19.60
2023-04-22T23:27:45.973Z,19.50
2023-04-22T23:30:13.318Z,19.50
2023-04-22T23:32:41.057Z,19.40
2023-04-22T23:35:10.261Z,19.40
2023-04-22T23:37:38.255Z,19.30
2023-04-22T23:40:06.891Z,19.30
2023-04-22T23:42:33.802Z,19.30
2023-04-22T23:45:00.683Z,19.20
2023-04-22T23:47:27.827Z,19.20
2023-04-22T23:49:54.732Z,19.10
2023-04-22T23:52:21.677Z,19.20
2023-04-22T23:54:51.328Z,19.10
2023-04-22T23:57:18.529Z,19.10
2023-04-22T23:59:45.735Z,19.10
